Station: Woolbrook  

  Atmospheric Gas Attenuation - ITU Rec 676-11   ----------------- dB/100km -----------------
Date Time Temp RH % AH g/m3 Dew Point Wind Direction Speed kph Gust kph Barometer mB Rainfall Since 9am 24GHz 47GHz 76GHz 122GHz 134GHz 241GHz
08/05 09:00 3 75 4.46 -0.9 0 1013.1 0.1 11.1 22.2 27.9 72.7 54.8 184.2
07/05 09:00 5.5 93 6.54 4.4 0 1013.1 0.1 15.5 24.9 35.3 92.4 80.3 274.0
06/05 09:00 13 83 9.41 10.2 0 1013.1 0 21.4 27.5 43.5 114.4 110.4 380.3
05/05 09:00 13.5 94 11 12.6 0 1013.1 0.6 24.8 30.0 50.1 131.8 132.0 455.9
04/05 09:00 14.5 79 9.83 10.9 0 1013.1 0.1 22.2 27.7 44.4 116.9 114.0 393.0
03/05 09:00 17 62 8.97 9.7 4 1013.1 0.1 20.2 25.6 39.7 104.1 99.1 341.5
02/05 09:00 17.5 62 9.24 10.3 11 1013.1 0.1 20.8 25.8 40.5 106.3 102.0 351.4
30/04 09:00 11 94 9.41 10.1 0 1013.1 0.1 21.5 28.1 44.7 117.4 113.3 390.3
29/04 09:00 9.5 93 8.47 8.5 0 1013.1 0.1 19.5 27.0 41.5 108.9 102.2 351.3
28/04 09:00 8.5 80 6.83 5.3 0 1013.1 0.1 16.0 24.5 35.2 92.0 81.1 277.1
27/04 09:00 11 88 8.81 9.1 0 1013.1 0 20.2 27.1 42.1 110.6 104.9 360.9
25/04 09:00 14.5 79 9.83 10.9 15 1013.1 0.1 22.2 27.7 44.4 116.9 114.0 393.0
24/04 09:00 11.5 82 8.47 8.6 0 1013.1 0.1 19.4 26.4 40.4 106.1 99.6 342.4
23/04 09:00 15 64 8.21 8.4 19 1013.1 0 18.7 24.9 37.7 98.8 91.9 315.7
22/04 09:00 10.5 82 7.95 7.5 4 1013.1 0.1 18.4 25.8 38.8 101.7 93.8 322.0
21/04 09:00 13 67 7.6 7.1 7 1013.1 0 17.5 24.5 36.2 94.9 86.3 296.0
20/04 09:00 6 93 6.75 4.9 0 1013.1 0 16.0 25.1 36.0 94.1 82.6 282.3
19/04 09:00 9.5 69 6.28 4.1 0 1013.1 0 14.8 23.4 32.6 85.1 72.9 248.6
17/04 09:00 10.5 59 5.72 2.8 0 1013.1 0 13.6 22.3 30.1 78.4 65.0 221.0
16/04 09:00 13 57 6.46 4.8 0 1013.1 0 15.1 22.8 31.9 83.2 72.0 245.7
15/04 09:00 9.5 46 4.19 -1.5 0 1013.1 0 10.4 20.2 24.8 64.4 47.3 158.7
14/04 09:00 16 43 5.86 3.6 0 1013.1 0 13.7 21.2 28.6 74.5 62.3 212.1
12/04 09:00 11.5 44 4.55 -0.1 15 1013.1 0 11.1 20.3 25.5 66.2 50.3 169.4
11/04 09:00 22.5 49 9.79 11.3 15 1013.1 0 21.7 25.3 40.0 105.2 102.4 353.4
10/04 09:00 20 61 10.54 12.3 19 1013.1 0 23.4 27.2 44.2 116.4 115.3 398.3
09/04 09:00 20 53 9.16 10.3 4 1013.1 0 20.5 25.0 38.9 102.2 97.8 337.1
08/04 09:00 9 87 7.67 7 0 1013.1 0 17.8 25.8 38.4 100.6 91.8 314.8
07/04 09:00 21 47 8.61 9.4 7 1013.1 0 19.3 23.9 36.4 95.5 89.9 309.6
06/04 09:00 16.5 53 7.44 6.9 4 1013.1 0 17.0 23.3 34.1 89.2 80.6 276.4
05/04 09:00 18.5 59 9.33 10.5 7 1013.1 20.9 25.7 40.3 105.9 101.8 351.0
04/04 09:00 12.5 94 10.34 11.6 0 1013.1 0.1 23.4 29.2 47.8 125.8 124.2 428.6
03/04 09:00 14 94 11.34 13.1 0 1013.1 0.1 25.5 30.5 51.2 134.9 136.0 470.1
02/04 09:00 13.5 94 11 12.6 0 1013.1 0.1 24.8 30.0 50.1 131.8 132.0 455.9
01/04 09:00 12 88 9.38 10.1 0 1013.1 0.1 21.4 27.7 44.0 115.6 111.4 383.8
31/03 09:00 10.5 94 9.12 9.6 0 1013.1 0.1 20.9 27.8 43.7 114.8 109.9 378.4
30/03 09:00 8.5 93 7.94 7.5 0 1013.1 0.1 18.4 26.4 39.7 104.3 96.1 329.9
29/03 09:00 12 77 8.21 8.1 0 1013.1 0.1 18.8 25.8 39.1 102.6 95.5 328.0
28/03 09:00 6.5 86 6.45 4.3 0 1013.1 1 15.3 24.4 34.5 90.3 78.1 266.3
27/03 09:00 9.5 81 7.38 6.4 11 1013.1 7 17.2 25.1 36.9 96.8 87.3 299.1
25/03 09:00 11.5 82 8.47 8.6 0 1013.1 0 19.4 26.4 40.4 106.1 99.6 342.4
23/03 09:00 13 89 10.09 11.2 4 1013.1 0.1 22.8 28.6 46.4 122.1 119.9 413.4
22/03 09:00 14.5 94 11.69 13.6 0 1013.1 0.1 26.2 30.9 52.4 138.2 140.2 484.7
17/03 09:00 18.5 72 11.39 13.4 0 1013.1 0 25.3 29.0 48.6 127.9 128.9 445.9
16/03 09:00 9.5 93 8.47 8.5 0 1013.1 0 19.5 27.0 41.5 108.9 102.2 351.3
15/03 09:00 14 84 10.13 11.3 0 1013.1 0.1 22.9 28.4 46.0 121.0 118.9 410.1
14/03 09:00 15 64 8.21 8.4 7 1013.1 0 18.7 24.9 37.7 98.8 91.9 315.7
12/03 09:00 17 80 11.58 13.6 0 1013.1 0 25.8 29.8 50.3 132.5 134.1 463.8
11/03 09:00 14.5 94 11.69 13.6 0 1013.1 0.1 26.2 30.9 52.4 138.2 140.2 484.7
10/03 09:00 17.5 85 12.67 15 7 1013.1 0.8 28.1 31.6 54.7 144.2 148.7 514.7
09/03 09:00 17 85 12.3 14.5 7 1013.1 0.1 27.3 31.1 53.4 140.8 144.3 499.4
08/03 09:00 19.5 90 15.1 17.9 0 1013.1 8 33.1 35.2 64.1 169.2 180.1 624.5
07/03 09:00 20 73 12.61 15.1 0 1013.1 0 27.8 30.6 52.7 139.0 143.0 495.4
06/03 09:00 15.5 95 12.56 14.7 0 1013.1 0.1 28.0 32.1 55.6 146.7 151.0 522.6
05/03 09:00 15 95 12.18 14.2 0 1013.1 0.1 27.2 31.6 54.3 143.1 146.4 506.5
04/03 09:00 19.5 82 13.76 16.3 0 1013.1 0 30.3 32.8 58.0 153.1 160.3 555.6
03/03 09:00 18 81 12.44 14.7 4 1013.1 0 27.6 31.0 53.3 140.6 144.4 499.9
02/03 09:00 16.5 85 11.93 14 4 1013.1 0 26.6 30.6 52.1 137.4 140.0 484.2
01/03 09:00 17.5 81 12.08 14.2 11 1013.1 0.1 26.8 30.5 52.1 137.4 140.3 485.3
28/02 09:00 19.5 73 12.25 14.6 28 1013.1 0 27.1 30.1 51.5 135.8 139.0 481.1
27/02 09:00 17 80 11.58 13.6 4 1013.1 0 25.8 29.8 50.3 132.5 134.1 463.8
26/02 09:00 18.5 72 11.39 13.4 7 1013.1 0 25.3 29.0 48.6 127.9 128.9 445.9
25/02 09:00 15.5 95 12.56 14.7 0 1013.1 0.1 28.0 32.1 55.6 146.7 151.0 522.6
24/02 09:00 18.5 90 14.24 16.9 0 1013.1 0 31.4 34.0 61.0 160.9 169.6 587.6
23/02 09:00 17 90 13.02 15.4 0 1013.1 0 28.9 32.4 56.6 149.3 154.8 535.8
22/02 09:00 21 66 12.09 14.4 4 1013.1 0.1 26.6 29.4 49.9 131.4 134.1 464.4
21/02 09:00 20.5 91 16.19 19 0 1013.1 18 35.4 36.8 68.3 180.4 194.2 673.6
20/02 09:00 20.5 82 14.59 17.4 4 1013.1 0 32.0 33.8 60.9 160.9 170.2 590.2
19/02 09:00 22 63 12.23 14.7 0 1013.1 0 26.8 29.3 49.8 131.3 134.3 465.0
17/02 09:00 14.5 84 10.45 11.8 0 1013.1 0 23.5 28.8 47.1 123.8 122.5 423.0
16/02 09:00 15.5 79 10.44 12 7 1013.1 0 23.4 28.4 46.4 122.1 120.8 417.1
15/02 09:00 16.5 71 9.97 11.2 11 1013.1 0 22.4 27.3 43.9 115.4 112.9 389.6
14/02 09:00 16.5 75 10.53 12.1 19 1013.1 0 23.6 28.2 46.2 121.6 120.5 416.0
13/02 09:00 15.5 84 11.1 12.9 11 1013.1 3 24.9 29.5 49.2 129.6 130.0 449.2
12/02 09:00 22 78 15.14 18.1 28 1013.1 0.1 33.0 34.2 62.2 164.3 174.8 606.4
11/02 09:00 18 95 14.59 17.2 0 1013.1 0.1 32.2 34.9 63.0 166.3 176.0 609.9
10/02 09:00 19 90 14.67 17.4 0 1013.1 17 32.3 34.6 62.5 165.1 174.8 606.1
09/02 09:00 20 78 13.48 16 0 1013.1 0 29.6 32.1 56.4 148.9 155.3 538.0
08/02 09:00 21.5 55 10.37 12.1 0 1013.1 0 23.0 26.4 42.8 112.4 110.9 383.3
07/02 09:00 23 64 13.15 15.8 0 1013.1 0.1 28.7 30.4 52.9 139.6 144.8 501.9
06/02 09:00 18 81 12.44 14.7 0 1013.1 0 27.6 31.0 53.3 140.6 144.4 499.9
05/02 09:00 18.5 81 12.81 15.2 0 1013.1 0 28.3 31.5 54.6 144.0 148.7 515.0
04/02 09:00 15.5 74 9.78 11 0 1013.1 0 22.0 27.3 43.7 114.8 111.8 385.6
02/02 09:00 19 90 14.67 17.4 4 1013.1 11 32.3 34.6 62.5 165.1 174.8 606.1
01/02 09:00 26.5 47 11.77 14.4 0 1013.1 0 25.6 27.1 45.3 119.4 121.0 419.2
31/01 09:00 22.5 59 11.78 14.3 0 1013.1 0 25.9 28.4 47.7 125.7 127.5 441.4
30/01 09:00 19 68 11.08 13.1 4 1013.1 0 24.6 28.3 47.0 123.7 123.9 428.4
29/01 09:00 18 72 11.06 12.9 0 1013.1 0 24.6 28.6 47.5 125.1 125.3 433.0
26/01 09:00 14.5 89 11.07 12.8 0 1013.1 0 24.8 29.8 49.7 130.9 131.3 453.5
25/01 09:00 24.5 61 13.65 16.7 9 1013.1 0 29.7 30.7 54.0 142.4 148.7 515.7
22/01 09:00 20.5 66 11.74 13.9 15 1013.1 0 25.9 28.9 48.8 128.5 130.3 450.9
21/01 09:00 16 70 9.54 10.6 4 1013.1 0 21.5 26.8 42.4 111.5 107.9 372.0
20/01 09:00 18 72 11.06 12.9 7 1013.1 0 24.6 28.6 47.5 125.1 125.3 433.0
19/01 09:00 17 76 11 12.7 11 1013.1 0 24.5 28.9 47.9 126.0 126.1 435.7
18/01 09:00 17.5 85 12.67 15 7 1013.1 5 28.1 31.6 54.7 144.2 148.7 514.7
15/01 09:00 18 90 13.82 16.4 0 1013.1 6 30.5 33.4 59.4 156.9 164.4 569.7
14/01 09:00 20.5 74 13.17 15.7 4 1013.1 0 28.9 31.4 54.7 144.4 149.9 519.3
13/01 09:00 21 74 13.55 16.2 0 1013.1 0 29.7 31.8 56.0 147.8 154.2 534.5
10/01 09:00 19.5 68 11.41 13.6 19 1013.1 0 25.3 28.7 48.0 126.5 127.5 441.1
09/01 09:00 17.5 76 11.33 13.3 0 1013.1 0.1 25.2 29.3 48.9 128.9 129.8 448.8
07/01 09:00 19.5 82 13.76 16.3 0 1013.1 0.1 30.3 32.8 58.0 153.1 160.3 555.6

Last Refresh: 08-May-2026 12:07:21

Bureau of Meteorology